Buoy 52609

sailwx.info

Track history (hours):
 
Tides and Currents Weather Stations Pressure Air Temp Water Temp Dewpoint Dewpoint Depression Visibility Wind Speed Wind Dir Waves Ship Positions

Drifting buoy 52609

Last reported at 2014-Dec-22 05:00 UTC. Time now 2014-Dec-22 07:04 UTC.
Position N 13°12' E 139°41'.

Water temperature 29.0 ° C

Date/timePositionNaut miles runAvg speedWind from/ knotsBaromVisibWave heightAir tempDewpointWater temp
2014-Dec-22 05:00N 13°12' E 139°41'1 0.7 29.0
2014-Dec-22 03:00N 13°12' E 139°42'1 1.3 28.9
2014-Dec-22 02:00N 13°12' E 139°43'1 1.3 28.9
2014-Dec-22 01:00N 13°11' E 139°45'0 0.4 28.9
2014-Dec-22 00:00N 13°11' E 139°44'3 2.6 28.9
2014-Dec-21 23:00N 13°10' E 139°47'0 0.0 28.9
2014-Dec-21 20:00N 13°10' E 139°47'1 0.6 28.9
2014-Dec-21 19:00N 13°10' E 139°48'1 1.1 28.9
2014-Dec-21 18:00N 13°09' E 139°49'1 0.4 28.9
2014-Dec-21 16:00N 13°09' E 139°49'0 0.0 28.9
2014-Dec-21 15:00N 13°09' E 139°49'3 1.0 28.9
2014-Dec-21 12:00N 13°09' E 139°53'0 0.1 28.9
2014-Dec-21 11:00N 13°09' E 139°53'3 1.7 28.9
2014-Dec-21 09:00N 13°08' E 139°56'2 1.0 28.9
2014-Dec-21 07:00N 13°08' E 139°58'0 0.0 28.9
2014-Dec-21 06:00N 13°08' E 139°58'1 0.5 28.9
2014-Dec-21 05:00N 13°08' E 139°59'0 0.0 28.9
2014-Dec-21 03:00N 13°08' E 139°59'3 1.1 28.9
2014-Dec-21 00:00N 13°07' E 140°02'0 0.0 28.9
2014-Dec-20 23:00N 13°07' E 140°02'0 0.0 28.9
2014-Dec-20 21:00N 13°07' E 140°02'1 0.8 28.9
2014-Dec-20 20:00N 13°07' E 140°03'1 0.8 28.9
2014-Dec-20 19:00N 13°07' E 140°04'1 0.7 28.9
2014-Dec-20 18:00N 13°07' E 140°04'0 0.0 28.9
2014-Dec-20 17:00N 13°07' E 140°04'2 1.7 28.9
2014-Dec-20 16:00N 13°05' E 140°05'2 1.7 28.9
2014-Dec-20 15:00N 13°07' E 140°04'2 0.8 28.9
2014-Dec-20 13:00N 13°05' E 140°05'1 0.7 28.9
2014-Dec-20 12:00N 13°05' E 140°05'0 0.0 28.9
2014-Dec-20 11:00N 13°05' E 140°05'5 4.9 28.9
2014-Dec-20 10:00N 13°02' E 140°09'0 0.0 28.9
2014-Dec-20 08:00N 13°02' E 140°09'0 0.2 28.9
2014-Dec-20 07:00N 13°02' E 140°09'2 2.0 28.9
2014-Dec-20 06:00N 13°01' E 140°11'1 0.5 28.9
2014-Dec-20 05:00N 13°01' E 140°10'1 0.6 28.9
2014-Dec-20 03:00N 13°00' E 140°11'2 1.2 28.9
2014-Dec-20 01:00N 12°59' E 140°13'3 3.0 28.9
2014-Dec-20 00:00N 12°57' E 140°16'0 0.0 28.9
2014-Dec-19 23:00N 12°57' E 140°16'2 0.5 28.9
2014-Dec-19 20:00N 12°57' E 140°17'1 0.8 28.9
2014-Dec-19 19:00N 12°56' E 140°18'1 0.6 28.9
2014-Dec-19 18:00N 12°56' E 140°18'1 1.5 28.9
2014-Dec-19 17:00N 12°55' E 140°20'1 1.4 28.9
2014-Dec-19 16:00N 12°56' E 140°18'6 1.4 28.9
2014-Dec-19 12:00N 12°54' E 140°24'2 1.8 28.9
2014-Dec-19 11:00N 12°53' E 140°26'1 0.4 28.9
2014-Dec-19 09:00N 12°53' E 140°27'1 1.3 28.9
2014-Dec-19 08:00N 12°53' E 140°28'1 0.6 28.9
2014-Dec-19 07:00N 12°53' E 140°28'2 1.7 29.0
2014-Dec-19 06:00N 12°54' E 140°30'4 1.8 29.0
2014-Dec-19 04:00N 12°54' E 140°34'0 0.0 29.0
2014-Dec-19 03:00N 12°54' E 140°34'2 0.8 29.0
2014-Dec-19 00:00N 12°53' E 140°36'0 0.0 28.9
2014-Dec-18 23:00N 12°53' E 140°36'0 0.0 28.9
2014-Dec-18 20:00N 12°53' E 140°36'1 0.7 29.0
2014-Dec-18 19:00N 12°54' E 140°37'1 0.8 29.0
2014-Dec-18 18:00N 12°53' E 140°38'0 0.0 28.9
2014-Dec-18 17:00N 12°53' E 140°38'3 3.2 29.0
2014-Dec-18 16:00N 12°51' E 140°40'0 0.0 29.0
2014-Dec-18 15:00N 12°51' E 140°40'0 0.0 29.0
2014-Dec-18 13:00N 12°51' E 140°40'1 1.1 29.0
2014-Dec-18 12:00N 12°52' E 140°41'1 1.4 29.0
2014-Dec-18 11:00N 12°51' E 140°43'2 0.8 29.0
2014-Dec-18 09:00N 12°51' E 140°44'0 0.5 29.0
2014-Dec-18 08:00N 12°51' E 140°45'0 0.4 29.0
2014-Dec-18 07:00N 12°50' E 140°45'2 1.0 29.0
2014-Dec-18 05:00N 12°50' E 140°47'0 0.0 29.0
2014-Dec-18 04:00N 12°50' E 140°47'0 0.0 29.0
2014-Dec-18 03:00N 12°50' E 140°47'5 2.3 29.0
2014-Dec-18 01:00N 12°49' E 140°51'0 0.0 29.0
2014-Dec-18 00:00N 12°49' E 140°51'0 0.2 29.0
2014-Dec-17 23:00N 12°50' E 140°51'2 1.2 29.0
2014-Dec-17 21:00N 12°49' E 140°53'2 1.6 29.0
2014-Dec-17 20:00N 12°49' E 140°55'1 0.6 29.0
2014-Dec-17 19:00N 12°48' E 140°55'1 1.5 29.0
2014-Dec-17 18:00N 12°49' E 140°57'0 0.0 29.0
2014-Dec-17 17:00N 12°49' E 140°57'0 0.0 29.0
2014-Dec-17 16:00N 12°49' E 140°57'6 1.5 29.0
2014-Dec-17 12:00N 12°48' E 141°03'2 2.4 29.0
2014-Dec-17 11:00N 12°49' E 141°05'0 0.4 29.0
2014-Dec-17 10:00N 12°49' E 141°05'0 0.0 29.0
2014-Dec-17 08:00N 12°49' E 141°05'0 0.1 29.0
2014-Dec-17 07:00N 12°49' E 141°05'1 1.0 29.1
2014-Dec-17 06:00N 12°49' E 141°06'4 1.9 29.1
2014-Dec-17 04:00N 12°51' E 141°09'0 0.0 29.1
2014-Dec-17 03:00N 12°51' E 141°09'1 0.7 29.1
2014-Dec-17 01:00N 12°51' E 141°11'0 0.0 29.0
2014-Dec-17 00:00N 12°51' E 141°11'1 1.0 29.0
2014-Dec-16 23:00N 12°51' E 141°10'0 0.0 29.0
2014-Dec-16 21:00N 12°51' E 141°10'2 1.7 29.0
2014-Dec-16 20:00N 12°53' E 141°11'0 0.4 29.0
2014-Dec-16 19:00N 12°53' E 141°11'1 0.5 29.0
2014-Dec-16 18:00N 12°53' E 141°12'0 0.1 29.0
2014-Dec-16 17:00N 12°53' E 141°12'9 0.5 29.0
2014-Dec-16 00:00N 12°49' E 141°20'0 0.0 29.0
2014-Dec-15 23:00N 12°49' E 141°20'2 0.6 29.0
2014-Dec-15 20:00N 12°49' E 141°22'1 0.8 29.0
2014-Dec-15 19:00N 12°48' E 141°22'1 1.3 29.0
2014-Dec-15 18:00N 12°47' E 141°23'0 0.0 29.0
2014-Dec-15 17:00N 12°47' E 141°23'0 0.0 29.0
2014-Dec-15 16:00N 12°47' E 141°23'4 3.6 29.0
2014-Dec-15 15:00N 12°47' E 141°27'1 0.2 29.0
2014-Dec-15 12:00N 12°47' E 141°28'1 1.3 29.0
2014-Dec-15 11:00N 12°46' E 141°29'1 0.8 29.0
2014-Dec-15 10:00N 12°47' E 141°28'1 0.6 29.0
2014-Dec-15 09:00N 12°47' E 141°29'1 0.4 29.0
2014-Dec-15 06:00N 12°47' E 141°30'1 1.2 29.1
2014-Dec-15 05:00N 12°47' E 141°31'2 1.9 29.1
2014-Dec-15 04:00N 12°46' E 141°33'0 0.0 29.1
2014-Dec-15 03:00N 12°46' E 141°33'1 0.6 29.1
2014-Dec-15 02:00N 12°47' E 141°33'2 1.9 29.1
2014-Dec-15 01:00N 12°47' E 141°35'1 1.2 29.1
2014-Dec-15 00:00N 12°49' E 141°35'0 0.0 29.1
2014-Dec-14 23:00N 12°49' E 141°35'0 0.0 29.0
2014-Dec-14 21:00N 12°49' E 141°35'0 0.0 29.0
2014-Dec-14 20:00N 12°49' E 141°35'2 1.8 29.0
2014-Dec-14 19:00N 12°49' E 141°37'0 0.0 29.0
2014-Dec-14 18:00N 12°49' E 141°37'1 1.3 29.0
2014-Dec-14 17:00N 12°49' E 141°38'0 0.0 29.1
2014-Dec-14 16:00N 12°49' E 141°38'2 2.1 29.1
2014-Dec-14 15:00N 12°50' E 141°40'1 0.2 29.1
2014-Dec-14 12:00N 12°50' E 141°39'1 0.8 29.1
2014-Dec-14 11:00N 12°51' E 141°40'2 2.1 29.1
2014-Dec-14 10:00N 12°50' E 141°38'1 1.3 29.1
2014-Dec-14 09:00N 12°51' E 141°38'1 1.3 29.1
2014-Dec-14 08:00N 12°50' E 141°40'0 0.0 29.1
2014-Dec-14 06:00N 12°50' E 141°40'2 1.8 29.2
2014-Dec-14 05:00N 12°50' E 141°41'0 0.0 29.2
2014-Dec-14 04:00N 12°50' E 141°41'0 0.0 29.2
2014-Dec-14 03:00N 12°50' E 141°41'4 1.3 29.2
2014-Dec-14 00:00N 12°50' E 141°45'16 0.7 29.1
2014-Dec-12 23:00N 12°45' E 142°01'0 0.0 29.1
2014-Dec-12 20:00N 12°45' E 142°01'1 0.5 29.1
2014-Dec-12 18:00N 12°46' E 142°02'5 0.4 29.1
2014-Dec-12 05:00N 12°48' E 142°06'   29.2
Track history (hours):
 
Tides and Currents Weather Stations Pressure Air Temp Water Temp Dewpoint Dewpoint Depression Visibility Wind Speed Wind Dir Waves Ship Positions

Drifting buoy 52609

Last reported at 2014-Dec-22 05:00 UTC. Time now 2014-Dec-22 07:04 UTC.
Position N 13°12' E 139°41'.

Water temperature 29.0 ° C

Date/timePositionNaut miles runAvg speedWind from/ knotsBaromVisibWave heightAir tempDewpointWater temp
2014-Dec-22 05:00N 13°12' E 139°41'1 0.7 29.0
2014-Dec-22 03:00N 13°12' E 139°42'1 1.3 28.9
2014-Dec-22 02:00N 13°12' E 139°43'1 1.3 28.9
2014-Dec-22 01:00N 13°11' E 139°45'0 0.4 28.9
2014-Dec-22 00:00N 13°11' E 139°44'3 2.6 28.9
2014-Dec-21 23:00N 13°10' E 139°47'0 0.0 28.9
2014-Dec-21 20:00N 13°10' E 139°47'1 0.6 28.9
2014-Dec-21 19:00N 13°10' E 139°48'1 1.1 28.9
2014-Dec-21 18:00N 13°09' E 139°49'1 0.4 28.9
2014-Dec-21 16:00N 13°09' E 139°49'0 0.0 28.9
2014-Dec-21 15:00N 13°09' E 139°49'3 1.0 28.9
2014-Dec-21 12:00N 13°09' E 139°53'0 0.1 28.9
2014-Dec-21 11:00N 13°09' E 139°53'3 1.7 28.9
2014-Dec-21 09:00N 13°08' E 139°56'2 1.0 28.9
2014-Dec-21 07:00N 13°08' E 139°58'0 0.0 28.9
2014-Dec-21 06:00N 13°08' E 139°58'1 0.5 28.9
2014-Dec-21 05:00N 13°08' E 139°59'0 0.0 28.9
2014-Dec-21 03:00N 13°08' E 139°59'3 1.1 28.9
2014-Dec-21 00:00N 13°07' E 140°02'0 0.0 28.9
2014-Dec-20 23:00N 13°07' E 140°02'0 0.0 28.9
2014-Dec-20 21:00N 13°07' E 140°02'1 0.8 28.9
2014-Dec-20 20:00N 13°07' E 140°03'1 0.8 28.9
2014-Dec-20 19:00N 13°07' E 140°04'1 0.7 28.9
2014-Dec-20 18:00N 13°07' E 140°04'0 0.0 28.9
2014-Dec-20 17:00N 13°07' E 140°04'2 1.7 28.9
2014-Dec-20 16:00N 13°05' E 140°05'2 1.7 28.9
2014-Dec-20 15:00N 13°07' E 140°04'2 0.8 28.9
2014-Dec-20 13:00N 13°05' E 140°05'1 0.7 28.9
2014-Dec-20 12:00N 13°05' E 140°05'0 0.0 28.9
2014-Dec-20 11:00N 13°05' E 140°05'5 4.9 28.9
2014-Dec-20 10:00N 13°02' E 140°09'0 0.0 28.9
2014-Dec-20 08:00N 13°02' E 140°09'0 0.2 28.9
2014-Dec-20 07:00N 13°02' E 140°09'2 2.0 28.9
2014-Dec-20 06:00N 13°01' E 140°11'1 0.5 28.9
2014-Dec-20 05:00N 13°01' E 140°10'1 0.6 28.9
2014-Dec-20 03:00N 13°00' E 140°11'2 1.2 28.9
2014-Dec-20 01:00N 12°59' E 140°13'3 3.0 28.9
2014-Dec-20 00:00N 12°57' E 140°16'0 0.0 28.9
2014-Dec-19 23:00N 12°57' E 140°16'2 0.5 28.9
2014-Dec-19 20:00N 12°57' E 140°17'1 0.8 28.9
2014-Dec-19 19:00N 12°56' E 140°18'1 0.6 28.9
2014-Dec-19 18:00N 12°56' E 140°18'1 1.5 28.9
2014-Dec-19 17:00N 12°55' E 140°20'1 1.4 28.9
2014-Dec-19 16:00N 12°56' E 140°18'6 1.4 28.9
2014-Dec-19 12:00N 12°54' E 140°24'2 1.8 28.9
2014-Dec-19 11:00N 12°53' E 140°26'1 0.4 28.9
2014-Dec-19 09:00N 12°53' E 140°27'1 1.3 28.9
2014-Dec-19 08:00N 12°53' E 140°28'1 0.6 28.9
2014-Dec-19 07:00N 12°53' E 140°28'2 1.7 29.0
2014-Dec-19 06:00N 12°54' E 140°30'4 1.8 29.0
2014-Dec-19 04:00N 12°54' E 140°34'0 0.0 29.0
2014-Dec-19 03:00N 12°54' E 140°34'2 0.8 29.0
2014-Dec-19 00:00N 12°53' E 140°36'0 0.0 28.9
2014-Dec-18 23:00N 12°53' E 140°36'0 0.0 28.9
2014-Dec-18 20:00N 12°53' E 140°36'1 0.7 29.0
2014-Dec-18 19:00N 12°54' E 140°37'1 0.8 29.0
2014-Dec-18 18:00N 12°53' E 140°38'0 0.0 28.9
2014-Dec-18 17:00N 12°53' E 140°38'3 3.2 29.0
2014-Dec-18 16:00N 12°51' E 140°40'0 0.0 29.0
2014-Dec-18 15:00N 12°51' E 140°40'0 0.0 29.0
2014-Dec-18 13:00N 12°51' E 140°40'1 1.1 29.0
2014-Dec-18 12:00N 12°52' E 140°41'1 1.4 29.0
2014-Dec-18 11:00N 12°51' E 140°43'2 0.8 29.0
2014-Dec-18 09:00N 12°51' E 140°44'0 0.5 29.0
2014-Dec-18 08:00N 12°51' E 140°45'0 0.4 29.0
2014-Dec-18 07:00N 12°50' E 140°45'2 1.0 29.0
2014-Dec-18 05:00N 12°50' E 140°47'0 0.0 29.0
2014-Dec-18 04:00N 12°50' E 140°47'0 0.0 29.0
2014-Dec-18 03:00N 12°50' E 140°47'5 2.3 29.0
2014-Dec-18 01:00N 12°49' E 140°51'0 0.0 29.0
2014-Dec-18 00:00N 12°49' E 140°51'0 0.2 29.0
2014-Dec-17 23:00N 12°50' E 140°51'2 1.2 29.0
2014-Dec-17 21:00N 12°49' E 140°53'2 1.6 29.0
2014-Dec-17 20:00N 12°49' E 140°55'1 0.6 29.0
2014-Dec-17 19:00N 12°48' E 140°55'1 1.5 29.0
2014-Dec-17 18:00N 12°49' E 140°57'0 0.0 29.0
2014-Dec-17 17:00N 12°49' E 140°57'0 0.0 29.0
2014-Dec-17 16:00N 12°49' E 140°57'6 1.5 29.0
2014-Dec-17 12:00N 12°48' E 141°03'2 2.4 29.0
2014-Dec-17 11:00N 12°49' E 141°05'0 0.4 29.0
2014-Dec-17 10:00N 12°49' E 141°05'0 0.0 29.0
2014-Dec-17 08:00N 12°49' E 141°05'0 0.1 29.0
2014-Dec-17 07:00N 12°49' E 141°05'1 1.0 29.1
2014-Dec-17 06:00N 12°49' E 141°06'4 1.9 29.1
2014-Dec-17 04:00N 12°51' E 141°09'0 0.0 29.1
2014-Dec-17 03:00N 12°51' E 141°09'1 0.7 29.1
2014-Dec-17 01:00N 12°51' E 141°11'0 0.0 29.0
2014-Dec-17 00:00N 12°51' E 141°11'1 1.0 29.0
2014-Dec-16 23:00N 12°51' E 141°10'0 0.0 29.0
2014-Dec-16 21:00N 12°51' E 141°10'2 1.7 29.0
2014-Dec-16 20:00N 12°53' E 141°11'0 0.4 29.0
2014-Dec-16 19:00N 12°53' E 141°11'1 0.5 29.0
2014-Dec-16 18:00N 12°53' E 141°12'0 0.1 29.0
2014-Dec-16 17:00N 12°53' E 141°12'9 0.5 29.0
2014-Dec-16 00:00N 12°49' E 141°20'0 0.0 29.0
2014-Dec-15 23:00N 12°49' E 141°20'2 0.6 29.0
2014-Dec-15 20:00N 12°49' E 141°22'1 0.8 29.0
2014-Dec-15 19:00N 12°48' E 141°22'1 1.3 29.0
2014-Dec-15 18:00N 12°47' E 141°23'0 0.0 29.0
2014-Dec-15 17:00N 12°47' E 141°23'0 0.0 29.0
2014-Dec-15 16:00N 12°47' E 141°23'4 3.6 29.0
2014-Dec-15 15:00N 12°47' E 141°27'1 0.2 29.0
2014-Dec-15 12:00N 12°47' E 141°28'1 1.3 29.0
2014-Dec-15 11:00N 12°46' E 141°29'1 0.8 29.0
2014-Dec-15 10:00N 12°47' E 141°28'1 0.6 29.0
2014-Dec-15 09:00N 12°47' E 141°29'1 0.4 29.0
2014-Dec-15 06:00N 12°47' E 141°30'1 1.2 29.1
2014-Dec-15 05:00N 12°47' E 141°31'2 1.9 29.1
2014-Dec-15 04:00N 12°46' E 141°33'0 0.0 29.1
2014-Dec-15 03:00N 12°46' E 141°33'1 0.6 29.1
2014-Dec-15 02:00N 12°47' E 141°33'2 1.9 29.1
2014-Dec-15 01:00N 12°47' E 141°35'1 1.2 29.1
2014-Dec-15 00:00N 12°49' E 141°35'0 0.0 29.1
2014-Dec-14 23:00N 12°49' E 141°35'0 0.0 29.0
2014-Dec-14 21:00N 12°49' E 141°35'0 0.0 29.0
2014-Dec-14 20:00N 12°49' E 141°35'2 1.8 29.0
2014-Dec-14 19:00N 12°49' E 141°37'0 0.0 29.0
2014-Dec-14 18:00N 12°49' E 141°37'1 1.3 29.0
2014-Dec-14 17:00N 12°49' E 141°38'0 0.0 29.1
2014-Dec-14 16:00N 12°49' E 141°38'2 2.1 29.1
2014-Dec-14 15:00N 12°50' E 141°40'1 0.2 29.1
2014-Dec-14 12:00N 12°50' E 141°39'1 0.8 29.1
2014-Dec-14 11:00N 12°51' E 141°40'2 2.1 29.1
2014-Dec-14 10:00N 12°50' E 141°38'1 1.3 29.1
2014-Dec-14 09:00N 12°51' E 141°38'1 1.3 29.1
2014-Dec-14 08:00N 12°50' E 141°40'0 0.0 29.1
2014-Dec-14 06:00N 12°50' E 141°40'2 1.8 29.2
2014-Dec-14 05:00N 12°50' E 141°41'0 0.0 29.2
2014-Dec-14 04:00N 12°50' E 141°41'0 0.0 29.2
2014-Dec-14 03:00N 12°50' E 141°41'4 1.3 29.2
2014-Dec-14 00:00N 12°50' E 141°45'16 0.7 29.1
2014-Dec-12 23:00N 12°45' E 142°01'0 0.0 29.1
2014-Dec-12 20:00N 12°45' E 142°01'1 0.5 29.1
2014-Dec-12 18:00N 12°46' E 142°02'5 0.4 29.1
2014-Dec-12 05:00N 12°48' E 142°06'   29.2

Dump ship's entire track history